Terminal Aerodrome Forecast
Issued by NWS Paducah, KY

Home | Current Version | Previous Version | Graphics & Text | Print | Product List | Glossary On
Versions: 1 2 3 4 5 6 7 8 9 10 11 12 13 14 15
317
FTUS43 KPAH 241120
TAFPAH
TAF
KPAH 241120Z 2412/2512 00000KT 2SM BR BCFG SCT002
     FM241330 VRB03KT P6SM SKC
     FM241700 14004KT P6SM SCT050
     FM250000 13002KT P6SM SKC=

USA.gov is the U.S. government's official web portal to all federal, state and local government web resources and services.